Time;durP1;ratioP1;P1;durP2;ratioP2;P2;SDS_P1;SDS_P2;PMS_P1;PMS_P2;Temp;Humidity;BMP_temperature;BMP_pressure;BME280_temperature;BME280_humidity;BME280_pressure;Samples;Min_cycle;Max_cycle;Signal;HPM_P1;HPM_P2
2022/06/24 00:00:42;;;;;;;;;;;;;;;25.96;51.20;99415.25;2059876;28;20354;-47
2022/06/24 00:01:52;;;;;;;;;;;;;;;25.95;51.40;99421.00;2063294;28;19918;-47
2022/06/24 00:02:52;;;;;;;;;;;;;;;25.95;51.27;99419.09;2069441;28;20399;-46
2022/06/24 00:03:53;;;;;;;;;;;;;;;25.95;51.43;99418.25;2066022;28;20082;-46
2022/06/24 00:04:57;;;;;;;;;;;;;;;25.94;51.28;99420.13;2064458;28;19921;-47
2022/06/24 00:05:57;;;;;;;;;;;;;;;25.94;51.52;99416.53;2070632;28;19917;-46
2022/06/24 00:06:57;;;;;;;;;;;;;;;25.95;51.31;99412.72;2071937;28;19913;-47
2022/06/24 00:07:58;;;;;;;;;;;;;;;25.94;51.34;99411.84;2070650;28;20570;-47
2022/06/24 00:08:59;;;;;;;;;;;;;;;25.94;51.37;99400.81;2070341;28;19909;-47
2022/06/24 00:09:59;;;;;;;;;;;;;;;25.92;51.55;99408.47;2066887;28;20703;-47
2022/06/24 00:11:10;;;;;;;;;;;;;;;25.93;51.50;99399.13;2067927;28;19917;-47
2022/06/24 00:12:15;;;;;;;;;;;;;;;25.94;51.46;99398.06;2065776;28;20051;-47
2022/06/24 00:13:15;;;;;;;;;;;;;;;25.94;51.33;99400.81;2060674;28;20367;-47
2022/06/24 00:14:16;;;;;;;;;;;;;;;25.94;51.38;99395.28;2059182;28;19909;-49
2022/06/24 00:15:23;;;;;;;;;;;;;;;25.94;51.72;99395.28;2069735;28;19917;-46
2022/06/24 00:16:23;;;;;;;;;;;;;;;25.95;51.43;99396.16;2066018;28;19917;-46
2022/06/24 00:17:26;;;;;;;;;;;;;;;25.94;51.63;99400.81;2064894;28;19924;-46
2022/06/24 00:18:26;;;;;;;;;;;;;;;25.95;51.42;99397.00;2069966;28;19964;-48
2022/06/24 00:19:28;;;;;;;;;;;;;;;25.94;51.52;99406.34;2069282;28;19909;-46
2022/06/24 00:20:28;;;;;;;;;;;;;;;25.95;51.49;99416.34;2071195;28;19913;-47
2022/06/24 00:21:28;;;;;;;;;;;;;;;25.95;51.22;99427.38;2066171;28;19924;-46
2022/06/24 00:22:29;;;;;;;;;;;;;;;25.96;51.22;99419.94;2062666;28;19910;-47
2022/06/24 00:23:30;;;;;;;;;;;;;;;25.94;51.25;99422.91;2068460;28;19952;-47
2022/06/24 00:24:31;;;;;;;;;;;;;;;25.94;51.51;99422.06;2072514;28;20000;-48
2022/06/24 00:25:35;;;;;;;;;;;;;;;25.94;51.50;99428.41;2067394;28;19921;-47
2022/06/24 00:26:37;;;;;;;;;;;;;;;25.95;51.29;99419.09;2060971;28;20221;-47
2022/06/24 00:27:38;;;;;;;;;;;;;;;25.94;51.51;99420.13;2067345;28;19969;-47
2022/06/24 00:28:38;;;;;;;;;;;;;;;25.94;51.31;99417.38;2070587;28;19933;-46
2022/06/24 00:29:38;;;;;;;;;;;;;;;25.94;51.29;99416.53;2064308;28;19909;-46
2022/06/24 00:30:43;;;;;;;;;;;;;;;25.94;51.28;99416.53;2063029;28;19917;-47
2022/06/24 00:31:59;;;;;;;;;;;;;;;25.93;51.69;99418.44;2073799;28;20007;-48
2022/06/24 00:33:08;;;;;;;;;;;;;;;25.93;51.50;99421.22;2071589;28;19917;-48
2022/06/24 00:34:23;;;;;;;;;;;;;;;25.94;51.67;99422.06;2068248;28;19917;-48
2022/06/24 00:35:24;;;;;;;;;;;;;;;25.93;51.44;99429.50;2069430;28;19917;-46
2022/06/24 00:36:24;;;;;;;;;;;;;;;25.93;51.75;99421.22;2068875;28;19915;-48
2022/06/24 00:37:26;;;;;;;;;;;;;;;25.93;51.40;99432.25;2069397;28;20220;-48
2022/06/24 00:38:29;;;;;;;;;;;;;;;25.93;51.47;99426.72;2069434;28;19909;-47
2022/06/24 00:39:30;;;;;;;;;;;;;;;25.92;51.66;99419.53;2067112;28;19921;-48
2022/06/24 00:40:34;;;;;;;;;;;;;;;25.93;51.53;99421.22;2070200;28;19914;-48
2022/06/24 00:41:35;;;;;;;;;;;;;;;25.92;51.71;99425.06;2065090;28;19917;-46
2022/06/24 00:42:45;;;;;;;;;;;;;;;25.92;51.55;99419.53;2067096;28;20147;-47
2022/06/24 00:43:46;;;;;;;;;;;;;;;25.94;51.83;99420.13;2070584;28;19924;-47
2022/06/24 00:45:07;;;;;;;;;;;;;;;25.93;51.52;99412.94;2061586;28;19918;-47
2022/06/24 00:46:10;;;;;;;;;;;;;;;25.93;51.68;99415.69;2051346;28;20648;-46
2022/06/24 00:47:14;;;;;;;;;;;;;;;25.92;51.40;99425.06;2073734;28;19923;-46
2022/06/24 00:48:15;;;;;;;;;;;;;;;25.92;51.42;99429.69;2069509;28;20020;-48
2022/06/24 00:49:23;;;;;;;;;;;;;;;25.92;51.55;99435.22;1998734;28;1988399;-46
2022/06/24 00:50:27;;;;;;;;;;;;;;;25.92;51.35;99436.09;2073319;28;19997;-47
2022/06/24 00:51:31;;;;;;;;;;;;;;;25.92;51.37;99443.50;2073664;28;19913;-46
2022/06/24 00:52:36;;;;;;;;;;;;;;;25.91;51.59;99445.41;2076019;28;19924;-46
2022/06/24 00:53:41;;;;;;;;;;;;;;;25.91;51.61;99439.91;2073515;28;20035;-47
2022/06/24 00:54:44;;;;;;;;;;;;;;;25.91;51.70;99434.38;2072936;28;19921;-49
2022/06/24 00:55:45;;;;;;;;;;;;;;;25.92;51.50;99441.63;2076898;28;20039;-48
2022/06/24 00:56:45;;;;;;;;;;;;;;;25.91;51.85;99433.53;2071973;28;20317;-48
2022/06/24 00:57:46;;;;;;;;;;;;;;;25.89;51.54;99428.22;2073536;28;20035;-47
2022/06/24 00:58:54;;;;;;;;;;;;;;;25.91;51.55;99426.09;2075170;28;19952;-47
2022/06/24 00:59:54;;;;;;;;;;;;;;;25.90;51.66;99429.94;2072343;28;20023;-46
2022/06/24 01:00:56;;;;;;;;;;;;;;;25.89;51.64;99428.22;2075547;28;19909;-48
2022/06/24 01:01:56;;;;;;;;;;;;;;;25.90;51.53;99424.41;2077232;28;20000;-47
2022/06/24 01:02:58;;;;;;;;;;;;;;;25.90;51.58;99424.41;2076269;28;20327;-46
2022/06/24 01:03:59;;;;;;;;;;;;;;;25.90;51.55;99427.16;2075631;28;19913;-46
2022/06/24 01:05:03;;;;;;;;;;;;;;;25.90;51.78;99426.31;2076052;28;19929;-47
2022/06/24 01:06:04;;;;;;;;;;;;;;;25.91;51.51;99425.25;2076758;28;19917;-47
2022/06/24 01:07:04;;;;;;;;;;;;;;;25.90;51.54;99427.16;2075575;28;19988;-47
2022/06/24 01:08:09;;;;;;;;;;;;;;;25.90;51.62;99431.84;2076553;28;19920;-46
2022/06/24 01:09:09;;;;;;;;;;;;;;;25.89;51.79;99422.69;2076071;28;19974;-47
2022/06/24 01:10:10;;;;;;;;;;;;;;;25.90;51.65;99427.16;2077197;28;19952;-46
2022/06/24 01:11:10;;;;;;;;;;;;;;;25.91;51.53;99428.00;2076659;28;19913;-47
2022/06/24 01:12:11;;;;;;;;;;;;;;;25.90;51.58;99429.94;2074778;28;20367;-46
2022/06/24 01:13:11;;;;;;;;;;;;;;;25.89;51.68;99428.22;2077072;28;19962;-48
2022/06/24 01:14:12;;;;;;;;;;;;;;;25.89;51.79;99419.94;2073268;28;19921;-47
2022/06/24 01:15:12;;;;;;;;;;;;;;;25.89;51.77;99419.94;2077499;28;19913;-48
2022/06/24 01:16:13;;;;;;;;;;;;;;;25.90;51.64;99420.81;2076405;28;19917;-47
2022/06/24 01:17:13;;;;;;;;;;;;;;;25.89;51.77;99414.41;2076899;28;20361;-47
2022/06/24 01:18:13;;;;;;;;;;;;;;;25.90;51.52;99409.75;2072087;28;19939;-49
2022/06/24 01:19:14;;;;;;;;;;;;;;;25.89;51.70;99414.41;2071432;28;19913;-47
2022/06/24 01:20:14;;;;;;;;;;;;;;;25.88;51.77;99408.03;2076959;28;19938;-47
2022/06/24 01:21:34;;;;;;;;;;;;;;;25.88;51.78;99401.66;2076571;28;19909;-48
2022/06/24 01:22:34;;;;;;;;;;;;;;;25.88;51.90;99409.97;2075131;28;20325;-46
2022/06/24 01:23:35;;;;;;;;;;;;;;;25.89;51.68;99411.63;2073253;28;19917;-47
2022/06/24 01:24:35;;;;;;;;;;;;;;;25.89;51.50;99408.88;2073495;28;19928;-47
2022/06/24 01:25:35;;;;;;;;;;;;;;;25.88;51.54;99407.19;2071303;28;19979;-47
2022/06/24 01:26:39;;;;;;;;;;;;;;;25.88;51.61;99409.97;2078481;28;19953;-47
2022/06/24 01:27:40;;;;;;;;;;;;;;;25.88;51.71;99409.97;2076898;28;20240;-48
2022/06/24 01:28:40;;;;;;;;;;;;;;;25.87;51.77;99405.47;2071560;28;19987;-48
2022/06/24 01:29:40;;;;;;;;;;;;;;;25.87;51.68;99406.34;2076826;28;20349;-48
2022/06/24 01:30:41;;;;;;;;;;;;;;;25.87;51.72;99399.94;2077307;28;19923;-47
2022/06/24 01:31:42;;;;;;;;;;;;;;;25.87;51.51;99406.34;2073303;28;19917;-47
2022/06/24 01:32:42;;;;;;;;;;;;;;;25.86;51.52;99410.16;2075718;28;19924;-47
2022/06/24 01:33:43;;;;;;;;;;;;;;;25.86;51.58;99415.69;2071408;28;19913;-49
2022/06/24 01:34:44;;;;;;;;;;;;;;;25.86;51.86;99412.91;2074726;28;19925;-48
2022/06/24 01:35:44;;;;;;;;;;;;;;;25.86;51.48;99409.31;2075381;28;19920;-47
2022/06/24 01:36:45;;;;;;;;;;;;;;;25.86;51.70;99420.34;2076543;28;20248;-48
2022/06/24 01:37:45;;;;;;;;;;;;;;;25.86;51.64;99420.34;2075090;28;19966;-49
2022/06/24 01:38:46;;;;;;;;;;;;;;;25.86;51.59;99409.31;2074250;28;19913;-47
2022/06/24 01:39:46;;;;;;;;;;;;;;;25.85;51.60;99407.59;2075955;28;19916;-47
2022/06/24 01:40:46;;;;;;;;;;;;;;;25.85;51.79;99391.03;2077289;28;19923;-47
2022/06/24 01:41:47;;;;;;;;;;;;;;;25.85;51.60;99393.78;2072767;28;19924;-47
2022/06/24 01:42:47;;;;;;;;;;;;;;;25.84;51.84;99389.31;2076406;28;20721;-46
2022/06/24 01:43:47;;;;;;;;;;;;;;;25.85;51.79;99396.56;2074655;28;20342;-47
2022/06/24 01:44:48;;;;;;;;;;;;;;;25.85;51.55;99396.56;2076650;28;20319;-47
2022/06/24 01:45:48;;;;;;;;;;;;;;;25.85;51.78;99408.47;2072515;28;19917;-49
2022/06/24 01:46:49;;;;;;;;;;;;;;;25.85;51.59;99402.94;2072871;28;20165;-47
2022/06/24 01:47:49;;;;;;;;;;;;;;;25.85;51.82;99404.84;2078462;28;19905;-48
2022/06/24 01:48:50;;;;;;;;;;;;;;;25.85;51.57;99402.06;2073243;28;19956;-46
2022/06/24 01:49:50;;;;;;;;;;;;;;;25.85;51.92;99400.19;2071341;28;20332;-47
2022/06/24 01:50:51;;;;;;;;;;;;;;;25.84;51.66;99397.59;2076757;28;19916;-47
2022/06/24 01:51:53;;;;;;;;;;;;;;;25.83;51.64;99398.66;2075912;28;20340;-47
2022/06/24 01:52:53;;;;;;;;;;;;;;;25.84;51.67;99394.81;2077347;28;20016;-50
2022/06/24 01:53:53;;;;;;;;;;;;;;;25.85;51.59;99393.78;2074857;28;19955;-47
2022/06/24 01:54:54;;;;;;;;;;;;;;;25.84;51.67;99394.81;2075131;28;20013;-47
2022/06/24 01:55:54;;;;;;;;;;;;;;;25.83;51.83;99396.75;2073305;28;19966;-47
2022/06/24 01:56:55;;;;;;;;;;;;;;;25.83;51.54;99398.66;2073855;28;19940;-48
2022/06/24 01:57:55;;;;;;;;;;;;;;;25.83;51.83;99388.47;2069985;28;20678;-48
2022/06/24 01:58:55;;;;;;;;;;;;;;;25.84;51.81;99394.81;2076483;28;20429;-47
2022/06/24 01:59:58;;;;;;;;;;;;;;;25.83;51.81;99382.09;2076326;28;20279;-48
2022/06/24 02:00:58;;;;;;;;;;;;;;;25.83;51.57;99384.88;2076002;28;20831;-47
2022/06/24 02:01:59;;;;;;;;;;;;;;;25.83;51.58;99373.81;2075464;28;19967;-47
2022/06/24 02:02:59;;;;;;;;;;;;;;;25.83;51.73;99376.59;2077078;28;20397;-47
2022/06/24 02:03:59;;;;;;;;;;;;;;;25.83;51.65;99365.53;2076034;28;20235;-47
2022/06/24 02:05:00;;;;;;;;;;;;;;;25.82;51.62;99358.31;2074417;28;19980;-46
2022/06/24 02:06:02;;;;;;;;;;;;;;;25.82;51.62;99348.13;2076538;28;19952;-47
2022/06/24 02:07:02;;;;;;;;;;;;;;;25.82;51.66;99341.72;2075266;28;20326;-46
2022/06/24 02:08:02;;;;;;;;;;;;;;;25.82;51.76;99338.97;2075402;28;19956;-47
2022/06/24 02:09:03;;;;;;;;;;;;;;;25.82;51.55;99336.22;2076694;28;19970;-46
2022/06/24 02:14:02;;;;;;;;;;;;;;;25.82;51.81;99366.59;2071171;28;19931;-47
2022/06/24 02:15:03;;;;;;;;;;;;;;;25.82;51.55;99361.06;2073217;28;19927;-48
2022/06/24 02:16:04;;;;;;;;;;;;;;;25.81;51.77;99351.94;2075970;28;19932;-47
2022/06/24 02:17:04;;;;;;;;;;;;;;;25.81;51.65;99356.63;2077192;28;19917;-48
2022/06/24 02:18:05;;;;;;;;;;;;;;;25.81;51.82;99356.63;2074560;28;19912;-47
2022/06/24 02:19:06;;;;;;;;;;;;;;;25.80;51.77;99352.16;2075929;28;19917;-47
2022/06/24 02:20:06;;;;;;;;;;;;;;;25.81;51.78;99356.63;2077336;28;19950;-48
2022/06/24 02:21:07;;;;;;;;;;;;;;;25.80;51.63;99353.00;2073674;28;19924;-47
2022/06/24 02:22:07;;;;;;;;;;;;;;;25.80;51.71;99355.78;2076896;28;19917;-46
2022/06/24 02:23:07;;;;;;;;;;;;;;;25.81;51.62;99351.09;2074786;28;20306;-47
2022/06/24 02:24:08;;;;;;;;;;;;;;;25.80;51.92;99332.84;2074805;28;19919;-47
2022/06/24 02:25:08;;;;;;;;;;;;;;;25.80;51.88;99327.31;2076850;28;19917;-47
2022/06/24 02:26:09;;;;;;;;;;;;;;;25.80;51.62;99321.81;2073344;28;19917;-47
2022/06/24 02:27:09;;;;;;;;;;;;;;;25.80;51.59;99319.03;2076391;28;19925;-46
2022/06/24 02:28:09;;;;;;;;;;;;;;;25.79;51.86;99326.44;2073629;28;20330;-48
2022/06/24 02:29:10;;;;;;;;;;;;;;;25.80;51.96;99321.81;2074898;28;20165;-47
2022/06/24 02:30:11;;;;;;;;;;;;;;;25.80;51.78;99316.28;2076632;28;19966;-47
2022/06/24 02:31:11;;;;;;;;;;;;;;;25.80;51.88;99310.75;2077036;28;19917;-46
2022/06/24 02:32:11;;;;;;;;;;;;;;;25.80;51.77;99305.25;2075821;28;19956;-47
2022/06/24 02:33:12;;;;;;;;;;;;;;;25.80;51.74;99308.00;2077655;28;19923;-47
2022/06/24 02:34:12;;;;;;;;;;;;;;;25.80;51.78;99305.25;2074173;28;19913;-47
2022/06/24 02:35:13;;;;;;;;;;;;;;;25.80;51.76;99310.75;2074528;28;19992;-49
2022/06/24 02:36:14;;;;;;;;;;;;;;;25.80;51.86;99308.00;2078863;28;20264;-46
2022/06/24 02:37:14;;;;;;;;;;;;;;;25.80;51.90;99300.56;2073775;28;20317;-47
2022/06/24 02:38:15;;;;;;;;;;;;;;;25.79;51.64;99300.75;2068682;28;19917;-48
2022/06/24 02:39:15;;;;;;;;;;;;;;;25.80;51.89;99296.97;2075695;28;19916;-47
2022/06/24 02:41:34;;;;;;;;;;;;;;;25.79;51.66;99289.72;2068988;28;19939;-47
2022/06/24 02:42:34;;;;;;;;;;;;;;;25.80;51.68;99288.69;2075818;28;19979;-46
2022/06/24 02:43:36;;;;;;;;;;;;;;;25.80;51.68;99288.69;2073642;28;19917;-48
2022/06/24 02:44:36;;;;;;;;;;;;;;;25.79;51.90;99287.81;2076141;28;19909;-47
2022/06/24 02:45:37;;;;;;;;;;;;;;;25.80;51.60;99288.69;2074787;28;20027;-47
2022/06/24 02:46:37;;;;;;;;;;;;;;;25.80;51.85;99291.44;2076429;28;19916;-47
2022/06/24 02:47:37;;;;;;;;;;;;;;;25.80;51.98;99294.19;2076800;28;20324;-47
2022/06/24 02:48:39;;;;;;;;;;;;;;;25.80;51.73;99294.19;2069047;28;19916;-49
2022/06/24 02:49:39;;;;;;;;;;;;;;;25.79;51.96;99293.31;2066763;28;19928;-47
2022/06/24 02:50:39;;;;;;;;;;;;;;;25.79;51.84;99287.81;2075131;28;19920;-46
2022/06/24 02:51:39;;;;;;;;;;;;;;;25.80;51.71;99280.41;2070755;28;19928;-48
2022/06/24 02:52:40;;;;;;;;;;;;;;;25.78;51.87;99268.72;2075681;28;19970;-50
2022/06/24 02:53:40;;;;;;;;;;;;;;;25.78;51.64;99263.19;2072981;28;19923;-47
2022/06/24 02:54:41;;;;;;;;;;;;;;;25.78;51.60;99260.44;2072630;28;19986;-47
2022/06/24 02:55:42;;;;;;;;;;;;;;;25.78;51.70;99252.16;2076684;28;19962;-50
2022/06/24 02:56:42;;;;;;;;;;;;;;;25.78;51.97;99246.63;2071142;28;19924;-47
2022/06/24 02:57:43;;;;;;;;;;;;;;;25.77;51.79;99247.66;2060517;28;19964;-49
2022/06/24 02:58:43;;;;;;;;;;;;;;;25.77;51.70;99255.94;2064977;28;19917;-47
2022/06/24 02:59:43;;;;;;;;;;;;;;;25.76;51.92;99249.59;2068316;28;20008;-49
2022/06/24 03:00:44;;;;;;;;;;;;;;;25.78;51.82;99249.38;2071686;28;19924;-46
2022/06/24 03:01:45;;;;;;;;;;;;;;;25.75;52.14;99264.47;2071389;28;19995;-48
2022/06/24 03:02:45;;;;;;;;;;;;;;;25.76;52.13;99266.16;2073961;28;19917;-47
2022/06/24 03:03:46;;;;;;;;;;;;;;;25.77;51.85;99261.47;2074693;28;20459;-47
2022/06/24 03:04:46;;;;;;;;;;;;;;;25.76;51.83;99266.16;2071631;28;19924;-46
2022/06/24 03:05:47;;;;;;;;;;;;;;;25.76;51.85;99268.06;2075333;28;19917;-46
2022/06/24 03:06:47;;;;;;;;;;;;;;;25.76;52.04;99268.06;2071376;28;19916;-46
2022/06/24 03:07:48;;;;;;;;;;;;;;;25.77;51.95;99272.50;2070616;28;20481;-47
2022/06/24 03:08:49;;;;;;;;;;;;;;;25.77;51.95;99280.78;2079492;28;20158;-47
2022/06/24 03:09:49;;;;;;;;;;;;;;;25.76;51.87;99281.88;2071450;28;19917;-46
2022/06/24 03:10:50;;;;;;;;;;;;;;;25.77;52.09;99294.59;2074690;28;20359;-47
2022/06/24 03:11:50;;;;;;;;;;;;;;;25.77;52.21;99294.59;2075431;28;19990;-47
2022/06/24 03:12:51;;;;;;;;;;;;;;;25.77;52.13;99294.59;2075070;28;19974;-47
2022/06/24 03:13:51;;;;;;;;;;;;;;;25.77;51.93;99305.63;2079036;28;20401;-47
2022/06/24 03:14:51;;;;;;;;;;;;;;;25.78;52.17;99323.91;2070149;28;19917;-46
2022/06/24 03:15:51;;;;;;;;;;;;;;;25.78;52.23;99332.19;2070168;28;19921;-47
2022/06/24 03:16:52;;;;;;;;;;;;;;;25.78;52.15;99346.84;2070171;28;19917;-48
2022/06/24 03:17:52;;;;;;;;;;;;;;;25.78;52.22;99362.56;2072572;28;19909;-48
2022/06/24 03:18:52;;;;;;;;;;;;;;;25.78;51.94;99390.16;2067799;28;19924;-47
2022/06/24 03:19:53;;;;;;;;;;;;;;;25.78;52.17;99413.09;2073488;28;19923;-48
2022/06/24 03:20:53;;;;;;;;;;;;;;;25.78;52.19;99435.19;2069277;28;20325;-49
2022/06/24 03:21:53;;;;;;;;;;;;;;;25.78;52.09;99442.63;2077481;28;20038;-49
2022/06/24 03:22:54;;;;;;;;;;;;;;;25.79;52.14;99452.59;2074568;28;19940;-50
2022/06/24 03:23:55;;;;;;;;;;;;;;;25.78;52.04;99461.94;2072603;28;20384;-49
2022/06/24 03:24:55;;;;;;;;;;;;;;;25.78;52.10;99467.47;2069407;28;20292;-48
2022/06/24 03:25:55;;;;;;;;;;;;;;;25.77;51.91;99468.50;2070312;28;19924;-47
2022/06/24 03:26:56;;;;;;;;;;;;;;;25.75;51.78;99463.22;2075341;28;20489;-47
2022/06/24 03:27:56;;;;;;;;;;;;;;;25.76;52.17;99459.38;2078578;28;19916;-46
2022/06/24 03:28:57;;;;;;;;;;;;;;;25.76;51.80;99458.53;2077270;28;20469;-46
2022/06/24 03:29:57;;;;;;;;;;;;;;;25.75;52.13;99470.63;2077091;28;19928;-47
2022/06/24 03:30:58;;;;;;;;;;;;;;;25.75;52.01;99470.63;2070695;28;19959;-46
2022/06/24 03:31:58;;;;;;;;;;;;;;;25.75;52.16;99487.19;2073725;28;19931;-46
2022/06/24 03:32:58;;;;;;;;;;;;;;;25.75;51.75;99492.69;2071980;28;20322;-48
2022/06/24 03:33:59;;;;;;;;;;;;;;;25.74;52.21;99491.00;2075159;28;19909;-47
2022/06/24 03:34:59;;;;;;;;;;;;;;;25.74;52.11;99500.13;2074215;28;20235;-46
2022/06/24 03:36:07;;;;;;;;;;;;;;;25.75;52.05;99495.47;2076010;28;20339;-49
2022/06/24 03:37:07;;;;;;;;;;;;;;;25.75;52.15;99484.41;2074482;28;20396;-51
2022/06/24 03:38:07;;;;;;;;;;;;;;;25.73;52.22;99486.56;2071461;28;19990;-50
2022/06/24 03:39:08;;;;;;;;;;;;;;;25.73;52.19;99494.84;2074016;28;19921;-47
2022/06/24 03:40:08;;;;;;;;;;;;;;;25.73;52.18;99492.94;2072631;28;20300;-51
2022/06/24 03:41:08;;;;;;;;;;;;;;;25.73;51.96;99481.03;2072081;28;19924;-48
2022/06/24 03:42:09;;;;;;;;;;;;;;;25.73;52.10;99475.53;2072732;28;19924;-49
2022/06/24 03:43:09;;;;;;;;;;;;;;;25.73;52.25;99470.84;2070561;28;20390;-50
2022/06/24 03:44:09;;;;;;;;;;;;;;;25.73;51.90;99470.00;2073268;28;20338;-50
2022/06/24 03:45:10;;;;;;;;;;;;;;;25.73;52.28;99464.47;2074663;28;19960;-48
2022/06/24 03:46:10;;;;;;;;;;;;;;;25.74;52.01;99460.66;2070798;28;20278;-47
2022/06/24 03:47:10;;;;;;;;;;;;;;;25.73;52.25;99450.69;2074089;28;20305;-48
2022/06/24 03:48:10;;;;;;;;;;;;;;;25.73;52.14;99447.91;2072597;28;20319;-49
2022/06/24 03:49:11;;;;;;;;;;;;;;;25.73;52.26;99442.41;2070385;28;19915;-51
2022/06/24 03:50:11;;;;;;;;;;;;;;;25.73;52.27;99442.41;2072944;28;19923;-52
2022/06/24 03:51:11;;;;;;;;;;;;;;;25.72;52.07;99435.16;2074608;28;20193;-49
2022/06/24 03:52:12;;;;;;;;;;;;;;;25.72;52.28;99433.25;2070767;28;19917;-51
2022/06/24 03:53:12;;;;;;;;;;;;;;;25.73;52.25;99442.41;2074349;28;19913;-50
2022/06/24 03:54:13;;;;;;;;;;;;;;;25.73;52.34;99446.00;2071273;28;19917;-49
2022/06/24 03:55:13;;;;;;;;;;;;;;;25.73;52.03;99447.91;2072576;28;19964;-48
2022/06/24 03:56:13;;;;;;;;;;;;;;;25.73;52.26;99453.44;2075702;28;20398;-51
2022/06/24 03:57:14;;;;;;;;;;;;;;;25.73;52.26;99459.81;2075967;28;19917;-54
2022/06/24 03:58:14;;;;;;;;;;;;;;;25.72;52.24;99451.72;2072053;28;19924;-54
2022/06/24 03:59:15;;;;;;;;;;;;;;;25.72;52.02;99449.81;2071070;28;19916;-55
2022/06/24 04:00:15;;;;;;;;;;;;;;;25.72;52.15;99435.16;2074928;28;19917;-54
2022/06/24 04:01:15;;;;;;;;;;;;;;;25.73;52.17;99425.84;2072694;28;19912;-54
2022/06/24 04:02:17;;;;;;;;;;;;;;;25.72;52.14;99418.59;2072354;28;19921;-55
2022/06/24 04:03:17;;;;;;;;;;;;;;;25.71;52.43;99408.63;2071322;28;20005;-54
2022/06/24 04:04:17;;;;;;;;;;;;;;;25.71;52.32;99397.59;2075398;28;20274;-54
2022/06/24 04:05:18;;;;;;;;;;;;;;;25.72;52.47;99402.03;2079180;28;19947;-54
2022/06/24 04:06:18;;;;;;;;;;;;;;;25.72;52.19;99399.28;2075564;28;19991;-54
2022/06/24 04:07:18;;;;;;;;;;;;;;;25.71;52.17;99390.16;2073460;28;20351;-54
2022/06/24 04:08:19;;;;;;;;;;;;;;;25.72;52.13;99394.59;2071704;28;19979;-54
2022/06/24 04:09:19;;;;;;;;;;;;;;;25.71;52.21;99395.69;2074217;28;20560;-54
2022/06/24 04:10:19;;;;;;;;;;;;;;;25.72;52.27;99402.03;2074380;28;20052;-54
2022/06/24 04:11:20;;;;;;;;;;;;;;;25.72;52.40;99399.28;2070574;28;20640;-54
2022/06/24 04:12:20;;;;;;;;;;;;;;;25.71;52.43;99401.19;2073968;28;19963;-54
2022/06/24 04:13:20;;;;;;;;;;;;;;;25.71;52.28;99398.44;2072610;28;19917;-54
2022/06/24 04:15:46;;;;;;;;;;;;;;;25.71;52.50;99415.00;2074792;28;20374;-54
2022/06/24 04:16:46;;;;;;;;;;;;;;;25.72;52.41;99418.59;2071554;28;19916;-54
2022/06/24 04:17:47;;;;;;;;;;;;;;;25.72;52.56;99424.97;2072364;28;20591;-54
2022/06/24 04:18:48;;;;;;;;;;;;;;;25.71;52.71;99417.75;2075294;28;19909;-55
2022/06/24 04:19:50;;;;;;;;;;;;;;;25.71;52.65;99422.44;2067816;28;19905;-55
2022/06/24 04:20:50;;;;;;;;;;;;;;;25.71;52.65;99420.50;2070397;28;19967;-54
2022/06/24 04:21:51;;;;;;;;;;;;;;;25.70;52.81;99416.06;2072236;28;19991;-55
2022/06/24 04:22:51;;;;;;;;;;;;;;;25.71;52.82;99405.88;2070238;28;19996;-54
2022/06/24 04:23:52;;;;;;;;;;;;;;;25.70;52.85;99404.16;2077834;28;20291;-54
2022/06/24 04:24:52;;;;;;;;;;;;;;;25.70;52.90;99404.16;2072186;28;19917;-53
2022/06/24 04:25:53;;;;;;;;;;;;;;;25.69;52.97;99399.72;2074970;28;20019;-54
2022/06/24 04:26:53;;;;;;;;;;;;;;;25.70;52.78;99398.63;2068788;28;20307;-54
2022/06/24 04:27:53;;;;;;;;;;;;;;;25.69;52.83;99391.44;2069701;28;19917;-54
2022/06/24 04:28:54;;;;;;;;;;;;;;;25.70;52.51;99393.13;2069550;28;19943;-56
2022/06/24 04:30:04;;;;;;;;;;;;;;;25.69;52.78;99392.28;2070462;28;20422;-55
2022/06/24 04:31:05;;;;;;;;;;;;;;;25.69;52.54;99392.28;2068786;28;19939;-56
2022/06/24 04:32:05;;;;;;;;;;;;;;;25.70;52.61;99401.41;2072984;28;19916;-56
2022/06/24 04:33:05;;;;;;;;;;;;;;;25.70;52.79;99399.50;2073731;28;20395;-55
2022/06/24 04:34:06;;;;;;;;;;;;;;;25.71;52.49;99405.88;2074841;28;20714;-56
2022/06/24 04:35:06;;;;;;;;;;;;;;;25.70;52.42;99401.41;2070672;28;20177;-55
2022/06/24 04:36:10;;;;;;;;;;;;;;;25.70;52.56;99394.00;2068233;28;19916;-48
2022/06/24 04:37:11;;;;;;;;;;;;;;;25.73;53.14;99398.25;2073762;28;19951;-54
2022/06/24 04:38:11;;;;;;;;;;;;;;;25.72;52.88;99382.72;2070057;28;19917;-54
2022/06/24 04:39:11;;;;;;;;;;;;;;;25.71;52.71;99387.41;2074359;28;19945;-54
2022/06/24 04:40:12;;;;;;;;;;;;;;;25.73;52.87;99376.16;2071592;28;19924;-54
2022/06/24 04:41:13;;;;;;;;;;;;;;;25.71;52.83;99378.28;2073694;28;20470;-54
2022/06/24 04:42:14;;;;;;;;;;;;;;;25.73;52.79;99365.13;2072208;28;19924;-52
2022/06/24 04:43:14;;;;;;;;;;;;;;;25.73;52.89;99370.63;2070326;28;19994;-53
2022/06/24 04:44:14;;;;;;;;;;;;;;;25.71;53.03;99368.06;2075690;28;19948;-54
2022/06/24 04:45:15;;;;;;;;;;;;;;;25.73;52.93;99370.63;2070745;28;19917;-52
2022/06/24 04:46:16;;;;;;;;;;;;;;;25.72;52.86;99368.91;2072698;28;19933;-52
2022/06/24 04:47:16;;;;;;;;;;;;;;;25.72;53.03;99364.25;2077058;28;20002;-52
2022/06/24 04:48:17;;;;;;;;;;;;;;;25.72;52.91;99366.16;2072213;28;19909;-51
2022/06/24 04:49:18;;;;;;;;;;;;;;;25.72;52.85;99357.88;2069733;28;19910;-51
2022/06/24 04:50:18;;;;;;;;;;;;;;;25.71;53.08;99362.56;2072449;28;20267;-53
2022/06/24 04:51:18;;;;;;;;;;;;;;;25.71;52.85;99362.56;2072099;28;20315;-52
2022/06/24 04:52:19;;;;;;;;;;;;;;;25.71;53.04;99364.47;2067045;28;20415;-53
2022/06/24 04:53:20;;;;;;;;;;;;;;;25.72;52.88;99363.41;2069707;28;19928;-53
2022/06/24 04:54:21;;;;;;;;;;;;;;;25.71;52.90;99367.22;2075365;28;19932;-52
2022/06/24 04:55:21;;;;;;;;;;;;;;;25.71;53.20;99367.22;2078505;28;20204;-52
2022/06/24 04:56:21;;;;;;;;;;;;;;;25.72;53.02;99374.44;2074080;28;19916;-53
2022/06/24 04:57:22;;;;;;;;;;;;;;;25.71;53.05;99389.31;2071654;28;19979;-52
2022/06/24 04:58:22;;;;;;;;;;;;;;;25.71;52.99;99400.34;2074091;28;20258;-52
2022/06/24 04:59:22;;;;;;;;;;;;;;;25.70;53.19;99418.81;2072607;28;20231;-51
2022/06/24 05:00:22;;;;;;;;;;;;;;;25.70;53.30;99427.09;2070558;28;20244;-55
2022/06/24 05:01:23;;;;;;;;;;;;;;;25.72;53.36;99429.63;2066331;28;20014;-54
2022/06/24 05:02:23;;;;;;;;;;;;;;;25.70;53.30;99435.38;2066502;28;20000;-52
2022/06/24 05:03:24;;;;;;;;;;;;;;;25.71;53.33;99439.00;2066490;28;19909;-54
2022/06/24 05:04:24;;;;;;;;;;;;;;;25.71;53.30;99427.94;2072919;28;20211;-56
2022/06/24 05:05:24;;;;;;;;;;;;;;;25.71;53.11;99428.78;2073927;28;20342;-55
2022/06/24 05:06:24;;;;;;;;;;;;;;;25.70;53.23;99407.78;2076250;28;20480;-56
2022/06/24 05:07:25;;;;;;;;;;;;;;;25.70;53.08;99393.13;2075050;28;19913;-56
2022/06/24 05:08:25;;;;;;;;;;;;;;;25.69;53.07;99369.34;2075617;28;19908;-56
2022/06/24 05:09:25;;;;;;;;;;;;;;;25.69;52.94;99372.09;2074050;28;20694;-56
2022/06/24 05:10:26;;;;;;;;;;;;;;;25.70;53.30;99365.50;2075371;28;20049;-48
2022/06/24 05:11:26;;;;;;;;;;;;;;;25.70;53.38;99376.56;2072517;28;20441;-48
2022/06/24 05:12:26;;;;;;;;;;;;;;;25.70;53.04;99371.91;2076754;28;20030;-47
2022/06/24 05:13:26;;;;;;;;;;;;;;;25.70;53.21;99376.56;2073645;28;20358;-50
2022/06/24 05:14:27;;;;;;;;;;;;;;;25.69;53.26;99375.72;2075755;28;19909;-48
2022/06/24 05:15:27;;;;;;;;;;;;;;;25.69;53.21;99375.72;2076301;28;19916;-52
2022/06/24 05:16:28;;;;;;;;;;;;;;;25.69;53.21;99374.88;2070683;28;21270;-51
2022/06/24 05:17:28;;;;;;;;;;;;;;;25.69;53.24;99367.44;2073198;28;19913;-49
2022/06/24 05:18:28;;;;;;;;;;;;;;;25.69;53.20;99369.34;2075349;28;20035;-51
2022/06/24 05:19:29;;;;;;;;;;;;;;;25.67;52.89;99373.19;2074791;28;19909;-52
2022/06/24 05:20:29;;;;;;;;;;;;;;;25.64;52.79;99369.97;2072986;28;20416;-57
2022/06/24 05:21:30;;;;;;;;;;;;;;;25.64;52.84;99365.28;2065491;28;20361;-57
2022/06/24 05:22:30;;;;;;;;;;;;;;;25.64;53.09;99359.78;2066871;28;19913;-52
2022/06/24 05:23:31;;;;;;;;;;;;;;;25.66;53.11;99359.56;2072867;28;19909;-56
2022/06/24 05:24:31;;;;;;;;;;;;;;;25.66;53.16;99354.91;2073069;28;20325;-52
2022/06/24 05:25:32;;;;;;;;;;;;;;;25.66;52.86;99354.91;2073834;28;20019;-54